Time;durP1;ratioP1;P1;durP2;ratioP2;P2;SDS_P1;SDS_P2;PMS_P1;PMS_P2;Temp;Humidity;BMP_temperature;BMP_pressure;BME280_temperature;BME280_humidity;BME280_pressure;Samples;Min_cycle;Max_cycle;Signal;HPM_P1;HPM_P2
2023/04/25 00:01:41;;;;;;;12.82;2.10;;;7.20;82.00;;;;;;4990558;28;20174;-71
2023/04/25 00:04:09;;;;;;;7.78;1.77;;;7.20;81.90;;;;;;5007127;28;20053;-71
2023/04/25 00:06:36;;;;;;;10.90;1.77;;;7.20;81.80;;;;;;4991549;28;20517;-72
2023/04/25 00:09:06;;;;;;;9.70;2.63;;;7.10;81.90;;;;;;4987330;28;20057;-71
2023/04/25 00:11:33;;;;;;;8.30;1.75;;;7.10;82.00;;;;;;4990710;28;20263;-71
2023/04/25 00:14:01;;;;;;;8.82;2.00;;;7.10;82.00;;;;;;4989874;28;20061;-71
2023/04/25 00:16:33;;;;;;;11.85;1.90;;;7.00;81.60;;;;;;4990738;28;20050;-71
2023/04/25 00:19:00;;;;;;;12.25;1.80;;;7.00;81.60;;;;;;4989213;28;20163;-71
2023/04/25 00:21:28;;;;;;;13.60;2.60;;;7.00;81.40;;;;;;4987328;28;20055;-71
2023/04/25 00:23:55;;;;;;;7.82;2.15;;;6.90;81.50;;;;;;4989249;28;20287;-71
2023/04/25 00:26:22;;;;;;;9.20;1.88;;;6.90;81.60;;;;;;4986914;28;20071;-71
2023/04/25 00:28:49;;;;;;;10.57;2.13;;;6.80;81.70;;;;;;4989856;28;20732;-71
2023/04/25 00:31:16;;;;;;;12.05;1.65;;;6.80;81.70;;;;;;4989437;28;20046;-71
2023/04/25 00:33:44;;;;;;;10.00;1.97;;;6.80;81.70;;;;;;5006266;28;20047;-71
2023/04/25 00:36:11;;;;;;;10.65;2.35;;;6.70;81.70;;;;;;4974587;28;20283;-72
2023/04/25 00:38:38;;;;;;;13.43;2.10;;;6.70;81.50;;;;;;4972645;28;20490;-71
2023/04/25 00:41:06;;;;;;;9.98;2.10;;;6.70;81.50;;;;;;4989259;28;20038;-71
2023/04/25 00:43:34;;;;;;;12.13;2.25;;;6.60;81.50;;;;;;5004128;28;21019;-71
2023/04/25 00:46:02;;;;;;;10.27;1.87;;;6.60;81.50;;;;;;4991507;28;20058;-71
2023/04/25 00:48:29;;;;;;;12.77;2.30;;;6.60;81.60;;;;;;4990053;28;20270;-71
2023/04/25 00:50:59;;;;;;;8.77;1.63;;;6.50;81.80;;;;;;4988883;28;20047;-71
2023/04/25 00:53:28;;;;;;;10.68;2.30;;;6.50;81.90;;;;;;4989816;28;20055;-71
2023/04/25 00:55:55;;;;;;;9.43;1.75;;;6.50;82.00;;;;;;5006311;28;20090;-71
2023/04/25 00:58:23;;;;;;;6.53;1.40;;;6.50;82.00;;;;;;4989664;28;20053;-71
2023/04/25 01:00:52;;;;;;;12.10;2.25;;;6.50;82.10;;;;;;4987306;28;20251;-71
2023/04/25 01:03:20;;;;;;;8.75;1.90;;;6.50;82.00;;;;;;4988408;28;20049;-71
2023/04/25 01:05:48;;;;;;;12.02;2.20;;;6.50;82.10;;;;;;4969885;28;20079;-71
2023/04/25 01:08:16;;;;;;;12.07;2.17;;;6.50;82.10;;;;;;4971663;28;20118;-71
2023/04/25 01:10:43;;;;;;;11.53;2.27;;;6.50;82.10;;;;;;4987752;28;20134;-71
2023/04/25 01:13:10;;;;;;;11.27;2.35;;;6.50;82.00;;;;;;5005936;28;20271;-71
2023/04/25 01:15:37;;;;;;;11.70;2.10;;;6.60;82.00;;;;;;4989413;28;20058;-71
2023/04/25 01:18:05;;;;;;;15.90;2.17;;;6.60;82.00;;;;;;4989482;28;20462;-71
2023/04/25 01:20:33;;;;;;;9.07;2.30;;;6.60;81.90;;;;;;4986363;28;20087;-71
2023/04/25 01:23:03;;;;;;;11.13;2.30;;;6.60;81.80;;;;;;4986124;28;20071;-71
2023/04/25 01:25:30;;;;;;;12.30;2.00;;;6.60;81.80;;;;;;4987260;28;20696;-71
2023/04/25 01:27:58;;;;;;;10.95;2.33;;;6.60;81.70;;;;;;5002752;28;20106;-71
2023/04/25 01:30:27;;;;;;;14.25;2.35;;;6.60;81.80;;;;;;4999047;28;20134;-71
2023/04/25 01:32:56;;;;;;;9.95;2.20;;;6.60;81.50;;;;;;4969762;28;20082;-71
2023/04/25 01:35:24;;;;;;;14.57;2.70;;;6.60;81.60;;;;;;4986042;28;20057;-71
2023/04/25 01:37:54;;;;;;;9.73;2.38;;;6.50;81.40;;;;;;4972649;28;20822;-71
2023/04/25 01:40:24;;;;;;;9.57;1.67;;;6.50;81.60;;;;;;4968844;28;20071;-71
2023/04/25 01:42:52;;;;;;;7.57;1.42;;;6.50;81.40;;;;;;4984340;28;20050;-71
2023/04/25 01:45:20;;;;;;;15.55;2.20;;;6.50;81.40;;;;;;4989154;28;20081;-71
2023/04/25 01:47:49;;;;;;;10.37;1.97;;;6.40;81.30;;;;;;4973774;28;20047;-71
2023/04/25 01:50:17;;;;;;;13.65;2.80;;;6.40;81.50;;;;;;4985055;28;20263;-71
2023/04/25 01:52:45;;;;;;;14.73;2.10;;;6.30;81.70;;;;;;4999002;28;20074;-71
2023/04/25 01:55:13;;;;;;;7.75;1.45;;;6.30;81.70;;;;;;4986470;28;20051;-71
2023/04/25 01:57:47;;;;;;;5.88;0.90;;;6.20;81.40;;;;;;4988907;28;20185;-71
2023/04/25 02:00:15;;;;;;;10.33;2.03;;;6.20;81.10;;;;;;4987286;28;20050;-71
2023/04/25 02:02:42;;;;;;;11.18;1.73;;;6.20;80.80;;;;;;4984618;28;20713;-71
2023/04/25 02:05:26;;;;;;;6.40;1.30;;;6.20;80.10;;;;;;4969155;28;20130;-71
2023/04/25 02:07:53;;;;;;;9.77;1.80;;;6.20;80.10;;;;;;4982647;28;20529;-71
2023/04/25 02:10:20;;;;;;;10.80;2.00;;;6.20;80.00;;;;;;5004017;28;20057;-71
2023/04/25 02:12:58;;;;;;;8.97;1.67;;;6.20;80.00;;;;;;4990489;28;20057;-71
2023/04/25 02:15:48;;;;;;;9.75;2.35;;;6.20;79.80;;;;;;4981272;28;20294;-71
2023/04/25 02:18:16;;;;;;;8.75;1.38;;;6.20;79.30;;;;;;4988369;28;20058;-71
2023/04/25 02:20:44;;;;;;;5.90;1.08;;;6.20;79.40;;;;;;4988021;28;20062;-71
2023/04/25 02:23:11;;;;;;;7.85;1.38;;;6.10;79.40;;;;;;4985178;28;20130;-70
2023/04/25 02:25:38;;;;;;;10.17;2.10;;;6.10;79.50;;;;;;4968815;28;20138;-71
2023/04/25 02:28:06;;;;;;;7.80;1.13;;;6.10;79.50;;;;;;4984001;28;20255;-70
2023/04/25 02:30:35;;;;;;;7.47;1.10;;;6.10;79.50;;;;;;4985083;28;20047;-71
2023/04/25 02:33:05;;;;;;;5.90;0.70;;;6.10;79.70;;;;;;4988372;28;20133;-70
2023/04/25 02:35:32;;;;;;;6.22;1.00;;;6.10;79.80;;;;;;4988270;28;20047;-71
2023/04/25 02:37:59;;;;;;;10.53;1.80;;;6.00;80.00;;;;;;4961734;28;20091;-70
2023/04/25 02:40:26;;;;;;;14.93;2.20;;;6.00;79.90;;;;;;4968075;28;20749;-70
2023/04/25 02:42:54;;;;;;;9.35;1.55;;;6.00;79.70;;;;;;4994811;28;20055;-70
2023/04/25 02:45:23;;;;;;;10.35;1.20;;;6.00;79.10;;;;;;4969123;28;20047;-71
2023/04/25 02:47:50;;;;;;;10.70;1.50;;;6.00;79.10;;;;;;4982972;28;20118;-71
2023/04/25 02:50:19;;;;;;;8.27;1.60;;;6.00;78.80;;;;;;4984367;28;20051;-70
2023/04/25 02:52:46;;;;;;;8.88;1.25;;;6.00;78.70;;;;;;4980616;28;20283;-71
2023/04/25 02:55:18;;;;;;;9.15;1.50;;;5.90;78.80;;;;;;5004140;28;20042;-70
2023/04/25 02:57:45;;;;;;;7.22;0.98;;;5.90;78.70;;;;;;4987762;28;20059;-70
2023/04/25 03:00:19;;;;;;;5.70;1.08;;;5.90;78.80;;;;;;4986618;28;20146;-70
2023/04/25 03:02:47;;;;;;;6.27;0.97;;;5.90;79.00;;;;;;4987963;28;20053;-70
2023/04/25 03:05:14;;;;;;;6.93;1.10;;;5.90;79.30;;;;;;4985909;28;20275;-70
2023/04/25 03:07:43;;;;;;;8.48;1.60;;;5.90;79.10;;;;;;5004233;28;20055;-70
2023/04/25 03:10:11;;;;;;;6.20;0.93;;;5.90;79.10;;;;;;4987138;28;20047;-70
2023/04/25 03:12:38;;;;;;;7.30;1.05;;;5.80;79.30;;;;;;5004219;28;20082;-71
2023/04/25 03:15:06;;;;;;;7.37;1.20;;;5.80;79.30;;;;;;4987949;28;20055;-70
2023/04/25 03:17:33;;;;;;;10.15;1.60;;;5.80;79.20;;;;;;4971494;28;20247;-70
2023/04/25 03:20:03;;;;;;;4.20;0.73;;;5.80;79.20;;;;;;4987016;28;20170;-70
2023/04/25 03:22:32;;;;;;;6.32;1.02;;;5.80;79.20;;;;;;4982065;28;20059;-70
2023/04/25 03:24:59;;;;;;;8.50;1.25;;;5.70;79.30;;;;;;4984743;28;20213;-71
2023/04/25 03:27:26;;;;;;;8.03;1.13;;;5.80;79.40;;;;;;4992290;28;20129;-70
2023/04/25 03:29:53;;;;;;;6.78;0.82;;;5.80;79.20;;;;;;5002840;28;20762;-71
2023/04/25 03:32:20;;;;;;;10.43;1.30;;;5.70;79.10;;;;;;4987084;28;20043;-70
2023/04/25 03:34:47;;;;;;;4.50;0.50;;;5.70;79.40;;;;;;5000779;28;20125;-70
2023/04/25 03:37:16;;;;;;;7.90;1.08;;;5.70;78.50;;;;;;5000808;28;20051;-70
2023/04/25 03:39:43;;;;;;;5.07;0.30;;;5.70;77.90;;;;;;5001108;28;20557;-70
2023/04/25 03:42:10;;;;;;;3.58;0.60;;;5.70;77.40;;;;;;5004028;28;20777;-70
2023/04/25 03:44:37;;;;;;;4.13;0.70;;;5.70;76.20;;;;;;4987702;28;20851;-70
2023/04/25 03:47:04;;;;;;;3.80;0.55;;;5.60;74.90;;;;;;4987492;28;20165;-70
2023/04/25 03:49:31;;;;;;;2.78;0.50;;;5.60;75.30;;;;;;4970628;28;20117;-70
2023/04/25 03:52:03;;;;;;;5.17;0.43;;;5.50;75.50;;;;;;4986990;28;20055;-72
2023/04/25 03:54:36;;;;;;;5.88;0.70;;;5.50;74.90;;;;;;4987466;28;20269;-70
2023/04/25 03:57:10;;;;;;;4.72;0.95;;;5.50;75.40;;;;;;5002264;28;20149;-70
2023/04/25 03:59:39;;;;;;;3.72;0.50;;;5.50;75.60;;;;;;4986232;28;20047;-70
2023/04/25 04:02:08;;;;;;;6.22;0.85;;;5.40;75.10;;;;;;4987052;28;20055;-70
2023/04/25 04:04:37;;;;;;;1.90;0.40;;;5.40;75.60;;;;;;4986771;28;20102;-70
2023/04/25 04:07:04;;;;;;;2.67;0.43;;;5.40;74.70;;;;;;4984786;28;20707;-70
2023/04/25 04:09:36;;;;;;;1.65;0.30;;;5.30;74.20;;;;;;4984223;28;20601;-70
2023/04/25 04:12:08;;;;;;;2.65;0.30;;;5.30;74.30;;;;;;4988274;28;20058;-70
2023/04/25 04:14:36;;;;;;;5.97;0.90;;;5.30;74.40;;;;;;4990370;28;20055;-70
2023/04/25 04:17:05;;;;;;;5.50;0.90;;;5.30;74.90;;;;;;4986507;28;20050;-70
2023/04/25 04:19:32;;;;;;;4.97;0.68;;;5.30;75.00;;;;;;4965496;28;20330;-70
2023/04/25 04:22:08;;;;;;;5.35;0.85;;;5.30;75.30;;;;;;4974422;28;20051;-71
2023/04/25 04:24:37;;;;;;;5.65;0.80;;;5.30;75.50;;;;;;4987961;28;20074;-70
2023/04/25 04:27:07;;;;;;;2.55;0.35;;;5.30;75.60;;;;;;5006675;28;20071;-70
2023/04/25 04:29:41;;;;;;;5.33;0.47;;;5.30;75.70;;;;;;5006102;28;20169;-70
2023/04/25 04:32:17;;;;;;;4.30;0.70;;;5.30;75.80;;;;;;4989078;28;20765;-70
2023/04/25 04:34:44;;;;;;;6.75;0.95;;;5.30;76.10;;;;;;5002440;28;20052;-70
2023/04/25 04:37:14;;;;;;;6.20;0.70;;;5.20;76.20;;;;;;4986644;28;20050;-70
2023/04/25 04:39:44;;;;;;;4.10;0.47;;;5.20;76.20;;;;;;4989451;28;20055;-70
2023/04/25 04:42:21;;;;;;;4.57;0.73;;;5.30;76.50;;;;;;4990142;28;20054;-70
2023/04/25 04:44:56;;;;;;;5.50;0.88;;;5.20;76.90;;;;;;5006368;28;20848;-70
2023/04/25 04:47:39;;;;;;;5.47;0.60;;;5.30;77.20;;;;;;4990173;28;20058;-71
2023/04/25 04:50:20;;;;;;;5.05;1.13;;;5.30;77.50;;;;;;5003023;28;20074;-70
2023/04/25 04:53:12;;;;;;;5.65;0.77;;;5.20;77.40;;;;;;4990112;28;20059;-70
2023/04/25 04:55:54;;;;;;;6.43;1.00;;;5.30;77.10;;;;;;4989806;28;20109;-70
2023/04/25 04:58:33;;;;;;;4.65;0.47;;;5.30;77.40;;;;;;4988941;28;20745;-70
2023/04/25 05:01:13;;;;;;;8.60;1.20;;;5.30;77.50;;;;;;4976614;28;20054;-70
2023/04/25 05:03:59;;;;;;;5.22;0.70;;;5.30;77.60;;;;;;4986845;28;20051;-70
2023/04/25 05:06:47;;;;;;;6.00;0.88;;;5.30;77.70;;;;;;5002913;28;20059;-70
2023/04/25 05:09:34;;;;;;;7.03;0.90;;;5.30;77.80;;;;;;4946568;28;20070;-70
2023/04/25 05:12:09;;;;;;;5.22;0.57;;;5.30;78.00;;;;;;4986658;28;20347;-70
2023/04/25 05:14:53;;;;;;;9.25;0.70;;;5.30;78.30;;;;;;4988890;28;20485;-70
2023/04/25 05:17:39;;;;;;;5.95;0.68;;;5.30;78.70;;;;;;4987456;28;20421;-70
2023/04/25 05:20:19;;;;;;;8.82;1.13;;;5.30;78.60;;;;;;4990178;28;20497;-70
2023/04/25 05:23:05;;;;;;;5.07;0.77;;;5.30;78.80;;;;;;4990076;28;20050;-70
2023/04/25 05:25:52;;;;;;;6.72;1.42;;;5.30;78.70;;;;;;4987295;28;20389;-70
2023/04/25 05:28:44;;;;;;;3.92;0.50;;;5.30;78.90;;;;;;4975609;28;20051;-70
2023/04/25 05:31:34;;;;;;;6.13;0.90;;;5.30;79.00;;;;;;4951932;28;20221;-70
2023/04/25 05:34:06;;;;;;;10.23;1.48;;;5.30;79.10;;;;;;4989413;28;20047;-70
2023/04/25 05:36:41;;;;;;;7.97;0.90;;;5.30;79.30;;;;;;5006059;28;20047;-70
2023/04/25 05:39:08;;;;;;;4.40;0.75;;;5.40;79.50;;;;;;4988410;28;20270;-70
2023/04/25 05:41:53;;;;;;;4.35;0.63;;;5.40;79.60;;;;;;4990198;28;20203;-70
2023/04/25 05:44:40;;;;;;;6.38;1.05;;;5.50;79.70;;;;;;4986913;28;20059;-70
2023/04/25 05:47:23;;;;;;;4.35;0.80;;;5.50;79.70;;;;;;4989639;28;20448;-70
2023/04/25 05:50:10;;;;;;;8.20;0.97;;;5.50;80.10;;;;;;4972753;28;20051;-70
2023/04/25 05:52:47;;;;;;;8.23;1.00;;;5.50;80.10;;;;;;4985369;28;20251;-70
2023/04/25 05:55:32;;;;;;;4.47;0.43;;;5.60;80.00;;;;;;4985356;28;20134;-70
2023/04/25 05:58:02;;;;;;;6.82;1.15;;;5.60;79.70;;;;;;4969528;28;20055;-70
2023/04/25 06:00:30;;;;;;;4.38;0.70;;;5.60;79.00;;;;;;4987016;28;20051;-70
2023/04/25 06:02:57;;;;;;;7.43;0.80;;;5.60;78.70;;;;;;4987797;28;20547;-70
2023/04/25 06:05:24;;;;;;;5.20;0.85;;;5.70;79.20;;;;;;4989159;28;20301;-70
2023/04/25 06:07:51;;;;;;;3.88;0.68;;;5.70;79.20;;;;;;4977874;28;20078;-70
2023/04/25 06:10:18;;;;;;;6.90;0.85;;;5.70;79.00;;;;;;4982252;28;20134;-70
2023/04/25 06:12:45;;;;;;;7.63;0.98;;;5.70;78.40;;;;;;4990132;28;20055;-70
2023/04/25 06:15:15;;;;;;;3.67;0.77;;;5.70;78.30;;;;;;4983301;28;20042;-70
2023/04/25 06:17:44;;;;;;;8.60;1.02;;;5.70;78.40;;;;;;4984558;28;20275;-70
2023/04/25 06:20:11;;;;;;;7.70;0.88;;;5.80;78.30;;;;;;4984130;28;20054;-70
2023/04/25 06:22:40;;;;;;;11.10;1.20;;;5.80;78.50;;;;;;4968413;28;20971;-70
2023/04/25 06:25:08;;;;;;;9.80;1.00;;;5.80;78.30;;;;;;4985382;28;20056;-71
2023/04/25 06:27:35;;;;;;;5.20;0.40;;;5.80;78.20;;;;;;5000865;28;20051;-70
2023/04/25 06:30:04;;;;;;;5.38;1.27;;;5.80;78.20;;;;;;4999147;28;20275;-70
2023/04/25 06:32:34;;;;;;;3.15;0.32;;;5.80;78.10;;;;;;4985410;28;20682;-70
2023/04/25 06:35:03;;;;;;;10.10;0.93;;;5.90;78.20;;;;;;4990844;28;20130;-70
2023/04/25 06:37:30;;;;;;;4.05;0.60;;;5.90;78.20;;;;;;4985425;28;20110;-70
2023/04/25 06:39:57;;;;;;;8.33;1.07;;;5.90;78.10;;;;;;4971107;28;20528;-70
2023/04/25 06:42:24;;;;;;;5.80;0.70;;;5.90;77.50;;;;;;4984999;28;20691;-70
2023/04/25 06:44:58;;;;;;;3.63;0.60;;;5.90;77.20;;;;;;4982311;28;20047;-70
2023/04/25 06:47:25;;;;;;;5.40;0.80;;;6.00;77.80;;;;;;4986298;28;20441;-71
2023/04/25 06:49:52;;;;;;;3.80;0.75;;;6.00;76.90;;;;;;4970686;28;20055;-70
2023/04/25 06:52:20;;;;;;;7.00;1.37;;;6.10;76.80;;;;;;4981673;28;20149;-70
2023/04/25 06:54:48;;;;;;;6.38;1.05;;;6.10;76.60;;;;;;4982747;28;20290;-70
2023/04/25 06:57:36;;;;;;;4.97;0.80;;;6.20;75.30;;;;;;4967070;28;20635;-70
2023/04/25 07:00:22;;;;;;;4.32;0.50;;;6.20;75.00;;;;;;4985508;28;20058;-70
2023/04/25 07:02:50;;;;;;;3.47;0.50;;;6.20;75.10;;;;;;4986146;28;20054;-70
2023/04/25 07:05:18;;;;;;;6.20;0.80;;;6.20;74.90;;;;;;4982774;28;20061;-70
2023/04/25 07:07:46;;;;;;;6.40;0.82;;;6.30;75.00;;;;;;4985593;28;20774;-70
2023/04/25 07:10:13;;;;;;;4.95;0.60;;;6.30;75.60;;;;;;5001458;28;20181;-70
2023/04/25 07:12:40;;;;;;;5.53;1.10;;;6.30;75.90;;;;;;4966170;28;20051;-70
2023/04/25 07:15:09;;;;;;;2.45;0.60;;;6.30;75.30;;;;;;5001930;28;20046;-70
2023/04/25 07:17:37;;;;;;;7.20;0.80;;;6.40;74.50;;;;;;4968594;28;20046;-70
2023/04/25 07:20:08;;;;;;;6.53;0.85;;;6.40;74.60;;;;;;4984343;28;20378;-70
2023/04/25 07:22:36;;;;;;;7.88;0.60;;;6.40;73.80;;;;;;4984233;28;20087;-70
2023/04/25 07:25:06;;;;;;;6.05;0.73;;;6.50;75.40;;;;;;4977207;28;20047;-70
2023/04/25 07:27:34;;;;;;;2.58;0.43;;;6.50;73.40;;;;;;4986205;28;20050;-70
2023/04/25 07:30:13;;;;;;;2.90;0.60;;;6.50;73.90;;;;;;4980227;28;20130;-69
2023/04/25 07:32:40;;;;;;;6.00;0.73;;;6.50;73.20;;;;;;4967244;28;20344;-71
2023/04/25 07:35:08;;;;;;;1.88;0.28;;;6.50;71.40;;;;;;4983296;28;20067;-71
2023/04/25 07:37:35;;;;;;;5.68;0.63;;;6.50;71.00;;;;;;4981735;28;20210;-71
2023/04/25 07:40:29;;;;;;;2.88;0.40;;;6.50;71.70;;;;;;4974637;28;20898;-70
2023/04/25 07:43:02;;;;;;;3.07;0.33;;;6.60;71.90;;;;;;4986259;28;20525;-71
2023/04/25 07:45:36;;;;;;;4.10;0.70;;;6.60;71.50;;;;;;4982866;28;20940;-71
2023/04/25 07:48:04;;;;;;;4.95;0.70;;;6.70;70.30;;;;;;4988714;28;20645;-71
2023/04/25 07:50:35;;;;;;;3.83;0.32;;;6.70;69.60;;;;;;4964575;28;20051;-71
2023/04/25 07:53:02;;;;;;;3.85;0.57;;;6.70;70.20;;;;;;5002758;28;20058;-70
2023/04/25 07:55:36;;;;;;;4.43;0.30;;;6.70;70.30;;;;;;4985042;28;20050;-70
2023/04/25 07:58:10;;;;;;;4.40;0.65;;;6.80;71.00;;;;;;4986945;28;20329;-70
2023/04/25 08:00:41;;;;;;;2.80;0.22;;;6.80;70.10;;;;;;4987903;28;20158;-71
2023/04/25 08:03:27;;;;;;;2.47;0.20;;;6.80;70.00;;;;;;5003881;28;20062;-71
2023/04/25 08:05:55;;;;;;;2.13;0.20;;;6.70;69.30;;;;;;4988867;28;20053;-70
2023/04/25 08:08:23;;;;;;;3.97;0.60;;;6.60;69.80;;;;;;4984313;28;20055;-71
2023/04/25 08:10:51;;;;;;;3.10;0.28;;;6.60;70.40;;;;;;4996083;28;20252;-70
2023/04/25 08:13:18;;;;;;;2.90;0.25;;;6.50;71.00;;;;;;4987761;28;20054;-71
2023/04/25 08:15:46;;;;;;;3.67;0.30;;;6.50;71.20;;;;;;4987728;28;20093;-71
2023/04/25 08:18:13;;;;;;;3.33;0.30;;;6.40;71.80;;;;;;4985809;28;20428;-70
2023/04/25 08:20:40;;;;;;;7.07;0.73;;;6.40;72.10;;;;;;5004903;28;20501;-70
2023/04/25 08:23:10;;;;;;;3.22;0.60;;;6.40;72.00;;;;;;5001733;28;20259;-70
2023/04/25 08:25:59;;;;;;;5.47;0.52;;;6.40;72.70;;;;;;4994320;28;20059;-70
2023/04/25 08:28:28;;;;;;;3.20;0.47;;;6.50;73.40;;;;;;5004103;28;20141;-70
2023/04/25 08:30:57;;;;;;;4.47;0.40;;;6.50;74.40;;;;;;4997919;28;20490;-70
2023/04/25 08:33:27;;;;;;;4.80;0.53;;;6.50;74.00;;;;;;4984773;28;20058;-70
2023/04/25 08:36:18;;;;;;;3.90;0.63;;;6.60;74.60;;;;;;5001210;28;20286;-70
2023/04/25 08:38:45;;;;;;;4.57;0.45;;;6.70;73.80;;;;;;5000189;28;20050;-71
2023/04/25 08:41:17;;;;;;;6.25;0.90;;;6.80;72.60;;;;;;5005885;28;20058;-71
2023/04/25 08:43:44;;;;;;;5.20;0.50;;;6.80;72.30;;;;;;4988114;28;20059;-71
2023/04/25 08:46:13;;;;;;;3.80;0.70;;;6.90;72.30;;;;;;4973921;28;20140;-71
2023/04/25 08:48:52;;;;;;;4.15;0.68;;;7.00;72.50;;;;;;4969793;28;20781;-71
2023/04/25 08:51:24;;;;;;;3.75;0.57;;;7.00;72.60;;;;;;5003025;28;20054;-70
2023/04/25 08:53:53;;;;;;;4.00;0.32;;;7.00;70.90;;;;;;5001557;28;20085;-71
2023/04/25 08:56:23;;;;;;;6.47;0.90;;;7.00;71.50;;;;;;4984045;28;20474;-71
2023/04/25 08:58:50;;;;;;;7.10;0.77;;;7.00;72.10;;;;;;4986308;28;20051;-71
2023/04/25 09:01:18;;;;;;;4.68;0.68;;;7.00;72.10;;;;;;4976444;28;20274;-71
2023/04/25 09:03:51;;;;;;;3.50;0.40;;;7.00;72.10;;;;;;4971247;28;20050;-71
2023/04/25 09:06:20;;;;;;;5.18;0.40;;;7.00;72.80;;;;;;4982534;28;20048;-70
2023/04/25 09:08:51;;;;;;;4.43;0.30;;;7.10;72.10;;;;;;4986150;28;20693;-71
2023/04/25 09:11:19;;;;;;;4.30;0.60;;;7.20;72.60;;;;;;4987500;28;20161;-70
2023/04/25 09:13:47;;;;;;;6.93;0.80;;;7.20;72.40;;;;;;4995890;28;20266;-70
2023/04/25 09:16:24;;;;;;;4.53;0.90;;;7.30;70.90;;;;;;4981523;28;20338;-70
2023/04/25 09:19:22;;;;;;;4.95;0.60;;;7.30;71.00;;;;;;4996731;28;20054;-71
2023/04/25 09:21:50;;;;;;;5.40;0.50;;;7.30;72.10;;;;;;4988225;28;20122;-70
2023/04/25 09:24:17;;;;;;;3.87;0.50;;;7.30;72.30;;;;;;4970433;28;20723;-71
2023/04/25 09:26:44;;;;;;;3.90;0.50;;;7.40;72.50;;;;;;4988288;28;20310;-72
2023/04/25 09:29:12;;;;;;;4.85;0.80;;;7.40;72.70;;;;;;4984876;28;20054;-71
2023/04/25 09:31:42;;;;;;;4.93;0.40;;;7.40;73.00;;;;;;4985931;28;20055;-71
2023/04/25 09:34:15;;;;;;;3.53;0.40;;;7.40;73.20;;;;;;5001228;28;20480;-71
2023/04/25 09:36:46;;;;;;;3.83;0.43;;;7.40;73.70;;;;;;4981986;28;20106;-70
2023/04/25 09:39:41;;;;;;;4.47;0.40;;;7.50;73.60;;;;;;4986682;28;20340;-71
2023/04/25 09:42:14;;;;;;;4.70;0.60;;;7.50;73.60;;;;;;4988231;28;20047;-70
2023/04/25 09:44:45;;;;;;;4.22;0.60;;;7.50;73.80;;;;;;5004684;28;20590;-70
2023/04/25 09:47:15;;;;;;;3.38;0.30;;;7.50;74.10;;;;;;4988246;28;20043;-71
2023/04/25 09:49:45;;;;;;;3.30;0.40;;;7.50;74.40;;;;;;5004423;28;20494;-70
2023/04/25 09:52:16;;;;;;;4.68;0.80;;;7.50;74.60;;;;;;4969374;28;20267;-71
2023/04/25 09:54:56;;;;;;;5.57;0.63;;;7.50;74.80;;;;;;4985130;28;20125;-70
2023/04/25 09:57:33;;;;;;;7.40;0.70;;;7.50;74.90;;;;;;4985547;28;20047;-70
2023/04/25 10:00:04;;;;;;;2.65;0.70;;;7.50;74.00;;;;;;4985083;28;20071;-70
2023/04/25 10:02:43;;;;;;;3.80;0.43;;;7.50;74.00;;;;;;4987053;28;20540;-70
2023/04/25 10:05:16;;;;;;;4.85;0.50;;;7.60;74.60;;;;;;4985129;28;20329;-71
2023/04/25 10:07:43;;;;;;;5.15;1.35;;;7.60;74.90;;;;;;5004735;28;20049;-71
2023/04/25 10:10:16;;;;;;;4.35;0.50;;;7.70;73.00;;;;;;4984587;28;20055;-71
2023/04/25 10:12:44;;;;;;;3.45;0.60;;;7.70;72.50;;;;;;4967535;28;20055;-71
2023/04/25 10:15:13;;;;;;;2.67;0.47;;;7.70;71.30;;;;;;4982756;28;20054;-71
2023/04/25 10:17:44;;;;;;;3.28;0.40;;;7.60;71.30;;;;;;4985892;28;20713;-71
2023/04/25 10:20:12;;;;;;;1.15;0.10;;;7.60;69.40;;;;;;4966404;28;20161;-70
2023/04/25 10:22:42;;;;;;;3.53;1.05;;;7.60;70.50;;;;;;4983347;28;20046;-71
2023/04/25 10:25:09;;;;;;;4.10;0.80;;;7.50;69.80;;;;;;4982616;28;20569;-71
2023/04/25 10:27:37;;;;;;;3.33;0.67;;;7.50;71.70;;;;;;4979961;28;20056;-71
2023/04/25 10:30:06;;;;;;;6.68;0.90;;;7.60;71.00;;;;;;4978990;28;20287;-71
2023/04/25 10:32:34;;;;;;;3.70;0.40;;;7.60;70.50;;;;;;4997754;28;20061;-71
2023/04/25 10:35:12;;;;;;;6.18;0.52;;;7.60;69.90;;;;;;5004796;28;20043;-71
2023/04/25 10:37:40;;;;;;;2.90;0.60;;;7.80;69.40;;;;;;4982730;28;20054;-70
2023/04/25 10:40:10;;;;;;;3.87;0.33;;;7.80;68.70;;;;;;4999313;28;20206;-70
2023/04/25 10:42:37;;;;;;;5.13;0.60;;;7.80;67.80;;;;;;4985489;28;20281;-70
2023/04/25 10:45:06;;;;;;;5.97;0.93;;;7.80;68.40;;;;;;4971932;28;20138;-72
2023/04/25 10:47:45;;;;;;;4.65;0.70;;;7.90;67.60;;;;;;4981950;28;20637;-70
2023/04/25 10:50:14;;;;;;;3.78;0.40;;;8.00;68.40;;;;;;4966661;28;20051;-70
2023/04/25 10:52:41;;;;;;;5.60;0.60;;;8.00;66.90;;;;;;4980521;28;20450;-69
2023/04/25 10:55:09;;;;;;;4.78;0.70;;;7.90;67.70;;;;;;4997147;28;20734;-70
2023/04/25 10:57:41;;;;;;;6.82;0.63;;;7.90;68.80;;;;;;4982114;28;20050;-70
2023/04/25 11:00:14;;;;;;;9.02;0.93;;;7.90;69.90;;;;;;4981504;28;20544;-70
2023/04/25 11:02:48;;;;;;;6.07;1.23;;;7.90;70.80;;;;;;4987094;28;20125;-70
2023/04/25 11:05:26;;;;;;;6.17;0.77;;;8.00;70.50;;;;;;4981952;28;20047;-70
2023/04/25 11:07:57;;;;;;;3.90;0.70;;;8.00;70.80;;;;;;4980706;28;20259;-71
2023/04/25 11:10:27;;;;;;;6.43;1.00;;;8.00;68.90;;;;;;4982948;28;20054;-70
2023/04/25 11:12:54;;;;;;;5.00;1.10;;;8.10;68.70;;;;;;4999383;28;20043;-70
2023/04/25 11:15:21;;;;;;;3.38;0.57;;;8.20;67.40;;;;;;5002871;28;20145;-70
2023/04/25 11:17:51;;;;;;;7.10;0.90;;;8.20;67.30;;;;;;4983049;28;20516;-70
2023/04/25 11:20:18;;;;;;;3.65;0.50;;;8.20;68.20;;;;;;4983731;28;20279;-70
2023/04/25 11:22:46;;;;;;;5.10;0.63;;;8.30;67.10;;;;;;4989537;28;20098;-69
2023/04/25 11:25:15;;;;;;;3.88;0.50;;;8.30;66.90;;;;;;4985792;28;20057;-70
2023/04/25 11:27:51;;;;;;;3.55;0.55;;;8.30;65.70;;;;;;4984187;28;20947;-70
2023/04/25 11:30:19;;;;;;;6.17;0.83;;;8.30;67.80;;;;;;4986323;28;20106;-71
2023/04/25 11:32:46;;;;;;;5.32;0.40;;;8.40;67.20;;;;;;4988491;28;20721;-71
2023/04/25 11:35:15;;;;;;;4.43;0.50;;;8.40;68.30;;;;;;4989230;28;20056;-70
2023/04/25 11:37:42;;;;;;;4.75;0.60;;;8.50;68.10;;;;;;4973189;28;20045;-71
2023/04/25 11:40:11;;;;;;;3.53;0.55;;;8.60;69.00;;;;;;4988923;28;20836;-71
2023/04/25 11:42:39;;;;;;;5.17;0.70;;;8.60;67.10;;;;;;4988708;28;20449;-71
2023/04/25 11:45:07;;;;;;;2.95;0.22;;;8.60;66.20;;;;;;4988906;28;20294;-71
2023/04/25 11:47:35;;;;;;;5.90;0.98;;;8.80;68.00;;;;;;4986663;28;20056;-71
2023/04/25 11:50:03;;;;;;;4.80;0.60;;;8.80;66.90;;;;;;4988060;28;20194;-70
2023/04/25 11:52:39;;;;;;;4.82;0.40;;;8.80;65.60;;;;;;4989605;28;20054;-70
2023/04/25 11:55:08;;;;;;;5.80;0.57;;;8.70;65.00;;;;;;5005918;28;20047;-70
2023/04/25 11:57:36;;;;;;;5.53;0.73;;;8.70;65.40;;;;;;4992127;28;20347;-71
2023/04/25 12:00:12;;;;;;;2.45;0.40;;;8.60;64.20;;;;;;4990474;28;20093;-71
2023/04/25 12:02:42;;;;;;;3.72;0.40;;;8.60;64.70;;;;;;4990046;28;20073;-70
2023/04/25 12:05:10;;;;;;;4.00;0.55;;;8.60;64.40;;;;;;4991022;28;20051;-71
2023/04/25 12:07:39;;;;;;;4.00;0.50;;;8.60;64.50;;;;;;4986639;28;20050;-70
2023/04/25 12:10:08;;;;;;;3.95;0.50;;;8.60;63.60;;;;;;4991269;28;20275;-70
2023/04/25 12:12:35;;;;;;;3.50;0.50;;;8.60;64.30;;;;;;4992562;28;20039;-70
2023/04/25 12:15:11;;;;;;;4.25;0.70;;;8.60;64.40;;;;;;4987529;28;20102;-71
2023/04/25 12:17:39;;;;;;;3.10;0.47;;;8.60;62.10;;;;;;4984115;28;20042;-71
2023/04/25 12:20:11;;;;;;;4.30;0.60;;;8.50;63.40;;;;;;4985149;28;20058;-71
2023/04/25 12:22:44;;;;;;;4.22;0.38;;;8.50;62.40;;;;;;5003005;28;20251;-70
2023/04/25 12:25:12;;;;;;;3.40;0.50;;;8.40;64.00;;;;;;4987319;28;20074;-70
2023/04/25 12:27:41;;;;;;;2.00;0.20;;;8.40;65.40;;;;;;4987583;28;20058;-70
2023/04/25 12:30:11;;;;;;;1.70;0.30;;;8.40;65.50;;;;;;4987374;28;20055;-71
2023/04/25 12:32:38;;;;;;;5.10;0.60;;;8.40;65.90;;;;;;4989528;28;20054;-71
2023/04/25 12:35:06;;;;;;;3.33;0.80;;;8.50;65.40;;;;;;4990647;28;20817;-70
2023/04/25 12:37:33;;;;;;;6.03;0.60;;;8.50;66.40;;;;;;5002822;28;20054;-70
2023/04/25 12:40:03;;;;;;;6.38;0.70;;;8.60;65.60;;;;;;4989725;28;20150;-71
2023/04/25 12:42:30;;;;;;;3.85;0.65;;;8.60;66.20;;;;;;4990830;28;20572;-71
2023/04/25 12:44:58;;;;;;;4.93;0.60;;;8.70;67.20;;;;;;4990645;28;20790;-71
2023/04/25 12:47:25;;;;;;;3.90;0.77;;;8.80;67.30;;;;;;4988844;28;20337;-71
2023/04/25 12:49:52;;;;;;;7.35;1.00;;;8.80;67.90;;;;;;4987197;28;20051;-70
2023/04/25 12:52:19;;;;;;;6.57;0.82;;;8.80;67.50;;;;;;4987616;28;20039;-71
2023/04/25 12:54:46;;;;;;;3.55;0.70;;;8.80;67.50;;;;;;4991055;28;20433;-71
2023/04/25 12:57:14;;;;;;;3.30;0.60;;;8.80;67.90;;;;;;5002879;28;20556;-70
2023/04/25 12:59:43;;;;;;;4.85;0.85;;;8.80;67.60;;;;;;4970504;28;20279;-70
2023/04/25 13:02:10;;;;;;;4.35;0.57;;;8.90;68.20;;;;;;4988089;28;20063;-70
2023/04/25 13:04:37;;;;;;;5.35;0.60;;;8.80;68.90;;;;;;4989944;28;20798;-70
2023/04/25 13:07:05;;;;;;;6.10;0.80;;;8.80;68.50;;;;;;4984420;28;20219;-70
2023/04/25 13:09:32;;;;;;;3.27;0.60;;;8.80;66.00;;;;;;4981832;28;20066;-71
2023/04/25 13:11:59;;;;;;;4.28;0.82;;;8.70;64.80;;;;;;4986353;28;20260;-70
2023/04/25 13:14:27;;;;;;;3.28;0.40;;;8.60;65.10;;;;;;4977790;28;20722;-71